Time;durP1;ratioP1;P1;durP2;ratioP2;P2;SDS_P1;SDS_P2;PMS_P1;PMS_P2;Temp;Humidity;BMP_temperature;BMP_pressure;BME280_temperature;BME280_humidity;BME280_pressure;Samples;Min_cycle;Max_cycle;Signal;HPM_P1;HPM_P2
2021/04/23 00:00:43;;;;;;;3.35;1.50;;;;;;;12.28;55.02;101347.66;4917774;28;112842;-59
2021/04/23 00:03:20;;;;;;;2.50;1.40;;;;;;;12.27;55.13;101343.34;4903282;28;121463;-61
2021/04/23 00:05:47;;;;;;;2.95;1.60;;;;;;;12.27;55.11;101339.84;4903171;28;98373;-59
2021/04/23 00:08:14;;;;;;;3.72;1.67;;;;;;;12.28;55.02;101349.56;4903238;28;98050;-61
2021/04/23 00:10:40;;;;;;;2.83;1.30;;;;;;;12.29;54.94;101343.88;4903002;28;119778;-61
2021/04/23 00:13:06;;;;;;;3.88;1.88;;;;;;;12.27;54.74;101348.75;4903859;28;98818;-59
2021/04/23 00:15:32;;;;;;;3.22;1.63;;;;;;;12.29;54.79;101351.19;4903285;28;98176;-60
2021/04/23 00:17:59;;;;;;;4.55;1.88;;;;;;;12.26;54.97;101352.53;4902601;28;119067;-59
2021/04/23 00:20:27;;;;;;;3.17;1.35;;;;;;;12.22;54.78;101348.72;4903075;28;98432;-61
2021/04/23 00:23:03;;;;;;;3.78;1.58;;;;;;;12.22;54.70;101351.41;4918019;28;100917;-61
2021/04/23 00:25:29;;;;;;;4.45;1.58;;;;;;;12.23;54.77;101350.34;4885927;28;109562;-61
2021/04/23 00:27:57;;;;;;;3.35;1.60;;;;;;;12.20;54.91;101344.63;4902811;28;110019;-61
2021/04/23 00:30:25;;;;;;;3.80;1.63;;;;;;;12.19;54.66;101351.13;4902957;28;115357;-61
2021/04/23 00:32:55;;;;;;;4.20;1.65;;;;;;;12.19;55.36;101349.22;4902930;28;101341;-61
2021/04/23 00:35:33;;;;;;;2.95;1.52;;;;;;;12.16;54.72;101341.63;4902995;28;97967;-61
2021/04/23 00:38:00;;;;;;;4.18;1.30;;;;;;;12.17;54.70;101345.94;4903889;28;97739;-59
2021/04/23 00:40:39;;;;;;;3.33;1.50;;;;;;;12.14;54.66;101348.34;4915987;28;100631;-59
2021/04/23 00:43:06;;;;;;;4.35;1.55;;;;;;;12.14;54.59;101342.94;4903052;28;98594;-61
2021/04/23 00:45:32;;;;;;;3.95;1.75;;;;;;;12.10;55.20;101342.63;4900624;28;104327;-61
2021/04/23 00:48:00;;;;;;;3.92;1.70;;;;;;;12.09;54.98;101348.31;4903281;28;97789;-61
2021/04/23 00:50:44;;;;;;;4.13;1.75;;;;;;;12.08;55.05;101341.28;4902062;28;118532;-59
2021/04/23 00:53:16;;;;;;;4.53;1.92;;;;;;;12.04;55.09;101340.97;4903125;28;98426;-59
2021/04/23 00:55:42;;;;;;;4.40;1.70;;;;;;;12.02;55.02;101345.81;4902509;28;119195;-61
2021/04/23 00:58:13;;;;;;;4.00;1.90;;;;;;;11.99;55.59;101343.63;4902184;28;101958;-61
2021/04/23 01:00:42;;;;;;;5.75;1.77;;;;;;;12.03;55.18;101342.88;4901164;28;98162;-61
2021/04/23 01:03:10;;;;;;;4.65;1.67;;;;;;;12.07;54.77;101340.47;4902923;28;110798;-61
2021/04/23 01:05:36;;;;;;;4.93;2.20;;;;;;;12.13;54.63;101352.94;4902429;28;105226;-61
2021/04/23 01:08:03;;;;;;;2.67;1.48;;;;;;;12.14;54.11;101356.44;4903200;28;97788;-59
2021/04/23 01:10:29;;;;;;;3.60;1.92;;;;;;;12.13;54.63;101352.13;4900620;28;117237;-61
2021/04/23 01:12:55;;;;;;;3.75;1.88;;;;;;;12.11;54.46;101355.09;4902105;28;125247;-59
2021/04/23 01:15:21;;;;;;;5.30;2.08;;;;;;;12.15;54.21;101358.91;4900688;28;98407;-59
2021/04/23 01:17:48;;;;;;;3.75;1.90;;;;;;;12.13;54.53;101354.84;4903068;28;106450;-59
2021/04/23 01:20:14;;;;;;;4.10;1.90;;;;;;;12.09;54.32;101359.94;4902596;28;98475;-59
2021/04/23 01:22:40;;;;;;;3.53;1.85;;;;;;;12.07;54.44;101363.97;4902640;28;117251;-61
2021/04/23 01:25:07;;;;;;;4.05;1.90;;;;;;;12.03;54.72;101369.88;4901828;28;102648;-61
2021/04/23 01:27:33;;;;;;;4.65;2.00;;;;;;;12.02;54.33;101370.13;4902603;28;102030;-59
2021/04/23 01:30:00;;;;;;;4.30;1.92;;;;;;;11.99;54.40;101370.66;4902273;28;99210;-59
2021/04/23 01:32:26;;;;;;;5.53;2.20;;;;;;;11.98;54.22;101374.41;4902943;28;98247;-61
2021/04/23 01:34:52;;;;;;;4.00;1.65;;;;;;;11.95;54.71;101369.53;4901400;28;125228;-61
2021/04/23 01:37:18;;;;;;;5.88;2.00;;;;;;;11.92;54.63;101368.16;4902010;28;105416;-59
2021/04/23 01:39:44;;;;;;;3.75;2.05;;;;;;;11.88;54.54;101367.03;4915579;28;126391;-59
2021/04/23 01:42:11;;;;;;;3.72;2.00;;;;;;;11.86;54.72;101368.34;4901112;28;128534;-61
2021/04/23 01:44:37;;;;;;;4.10;2.03;;;;;;;11.85;54.65;101367.53;4901669;28;98058;-59
2021/04/23 01:47:03;;;;;;;3.70;2.10;;;;;;;11.83;55.12;101366.97;4903168;28;97879;-61
2021/04/23 01:49:30;;;;;;;5.10;2.10;;;;;;;11.80;55.07;101370.97;4899816;28;128988;-59
2021/04/23 01:52:05;;;;;;;4.20;2.10;;;;;;;11.76;55.09;101372.53;4901890;28;98347;-59
2021/04/23 01:54:31;;;;;;;3.92;1.83;;;;;;;11.74;55.51;101371.97;4902247;28;97990;-61
2021/04/23 01:56:58;;;;;;;5.07;2.40;;;;;;;11.70;55.34;101365.44;4901204;28;119068;-59
2021/04/23 01:59:24;;;;;;;4.53;2.30;;;;;;;11.67;55.17;101367.81;4902940;28;98813;-61
2021/04/23 02:01:50;;;;;;;6.13;2.30;;;;;;;11.64;55.58;101366.47;4901755;28;98290;-61
2021/04/23 02:04:19;;;;;;;4.57;2.15;;;;;;;11.65;55.27;101367.28;4879217;28;121201;-61
2021/04/23 02:06:46;;;;;;;4.10;2.22;;;;;;;11.62;55.41;101362.38;4881216;28;97926;-59
2021/04/23 02:09:12;;;;;;;5.00;2.33;;;;;;;11.60;55.37;101365.34;4882587;28;115566;-61
2021/04/23 02:11:40;;;;;;;3.67;2.10;;;;;;;11.57;55.45;101376.63;4881810;28;128103;-61
2021/04/23 02:14:06;;;;;;;4.88;2.47;;;;;;;11.54;55.74;101374.44;4882657;28;98353;-61
2021/04/23 02:16:33;;;;;;;5.88;2.45;;;;;;;11.51;55.37;101374.94;4864808;28;109982;-59
2021/04/23 02:18:59;;;;;;;4.72;2.35;;;;;;;11.49;55.65;101369.78;4897099;28;103519;-61
2021/04/23 02:21:25;;;;;;;5.40;2.28;;;;;;;11.49;55.99;101380.59;4901435;28;127671;-59
2021/04/23 02:23:51;;;;;;;4.78;2.17;;;;;;;11.47;55.54;101382.72;4901487;28;115539;-61
2021/04/23 02:26:19;;;;;;;4.43;2.15;;;;;;;11.45;55.77;101381.34;4901968;28;98106;-59
2021/04/23 02:28:45;;;;;;;4.07;2.40;;;;;;;11.44;55.73;101382.41;4900805;28;116616;-61
2021/04/23 02:31:15;;;;;;;4.53;2.50;;;;;;;11.42;55.86;101382.66;4900155;28;120434;-61
2021/04/23 02:33:43;;;;;;;7.15;2.95;;;;;;;11.40;55.91;101382.09;4904855;28;99683;-61
2021/04/23 02:36:09;;;;;;;5.55;2.38;;;;;;;11.40;55.57;101387.50;4904628;28;103717;-61
2021/04/23 02:38:35;;;;;;;5.90;2.42;;;;;;;11.41;55.89;101391.00;4903768;28;128615;-59
2021/04/23 02:41:01;;;;;;;3.85;2.17;;;;;;;11.41;55.84;101386.44;4904875;28;98429;-61
2021/04/23 02:43:33;;;;;;;6.03;2.60;;;;;;;11.39;56.15;101391.25;4905334;28;97898;-59
2021/04/23 02:45:59;;;;;;;4.88;2.50;;;;;;;11.37;56.30;101390.69;4905215;28;102229;-61
2021/04/23 02:48:27;;;;;;;4.45;2.30;;;;;;;11.37;55.93;101389.88;4903083;28;111203;-59
2021/04/23 02:51:04;;;;;;;4.53;2.33;;;;;;;11.34;56.08;101390.38;4904684;28;98313;-61
2021/04/23 02:53:30;;;;;;;6.25;2.50;;;;;;;11.31;55.88;101399.78;4904920;28;103383;-59
2021/04/23 02:55:56;;;;;;;5.25;2.72;;;;;;;11.26;56.52;101389.72;4903957;28;97879;-59
2021/04/23 02:58:23;;;;;;;4.38;2.45;;;;;;;11.27;56.00;101396.75;4904435;28;120294;-61
2021/04/23 03:00:56;;;;;;;4.60;2.55;;;;;;;11.25;56.05;101404.31;4904434;28;123305;-61
2021/04/23 03:03:23;;;;;;;6.53;3.00;;;;;;;11.26;56.35;101402.41;4904041;28;118725;-59
2021/04/23 03:05:50;;;;;;;5.47;2.78;;;;;;;11.23;56.12;101411.81;4905186;28;97871;-59
2021/04/23 03:08:17;;;;;;;4.75;2.85;;;;;;;11.22;56.05;101414.78;4904046;28;99622;-61
2021/04/23 03:10:46;;;;;;;5.45;2.72;;;;;;;11.20;55.93;101414.19;4904563;28;99117;-60
2021/04/23 03:13:19;;;;;;;4.53;2.38;;;;;;;11.18;56.24;101411.75;4904250;28;98543;-59
2021/04/23 03:15:45;;;;;;;4.63;2.83;;;;;;;11.21;56.38;101405.06;4904262;28;98113;-61
2021/04/23 03:18:14;;;;;;;4.00;2.55;;;;;;;11.20;55.92;101406.94;4904170;28;112645;-59
2021/04/23 03:20:40;;;;;;;5.85;2.75;;;;;;;11.19;55.84;101407.16;4901593;28;112678;-61
2021/04/23 03:23:06;;;;;;;6.05;2.60;;;;;;;11.20;56.17;101403.41;4885805;28;98075;-59
2021/04/23 03:25:32;;;;;;;5.15;2.80;;;;;;;11.19;56.23;101415.25;4904873;28;97838;-61
2021/04/23 03:27:58;;;;;;;5.30;2.95;;;;;;;11.19;56.16;101404.47;4886669;28;99348;-59
2021/04/23 03:30:28;;;;;;;4.57;2.88;;;;;;;11.17;56.27;101406.63;4901094;28;127972;-59
2021/04/23 03:32:54;;;;;;;4.20;2.70;;;;;;;11.16;56.27;101416.59;4904050;28;98526;-59
2021/04/23 03:35:20;;;;;;;5.60;3.10;;;;;;;11.15;56.41;101406.03;4903194;28;118852;-59
2021/04/23 03:37:46;;;;;;;4.80;3.00;;;;;;;11.14;55.64;101418.72;4904312;28;106468;-59
2021/04/23 03:40:15;;;;;;;7.85;3.00;;;;;;;11.14;55.90;101413.31;4902718;28;128888;-59
2021/04/23 03:42:41;;;;;;;4.82;2.92;;;;;;;11.14;56.32;101417.91;4900935;28;114410;-59
2021/04/23 03:45:09;;;;;;;5.50;3.10;;;;;;;11.15;55.93;101422.22;4902624;28;116050;-59
2021/04/23 03:47:35;;;;;;;6.38;3.35;;;;;;;11.12;55.99;101422.72;4903347;28;98141;-61
2021/04/23 03:50:01;;;;;;;7.57;3.28;;;;;;;11.13;56.12;101437.84;4902763;28;127898;-61
2021/04/23 03:52:27;;;;;;;5.90;3.05;;;;;;;11.11;56.30;101439.97;4903843;28;99069;-59
2021/04/23 03:54:53;;;;;;;5.18;3.20;;;;;;;11.10;56.42;101436.47;4904545;28;97772;-59
2021/04/23 03:57:19;;;;;;;5.90;3.15;;;;;;;11.11;56.30;101439.97;4903695;28;118467;-61
2021/04/23 03:59:46;;;;;;;6.07;3.25;;;;;;;11.10;56.66;101438.34;4902884;28;126668;-59
2021/04/23 04:02:12;;;;;;;5.40;3.28;;;;;;;11.11;56.55;101446.19;4903261;28;127601;-61
2021/04/23 04:04:38;;;;;;;5.72;3.22;;;;;;;11.10;56.95;101451.84;4903561;28;108311;-61
2021/04/23 04:07:04;;;;;;;5.95;3.50;;;;;;;11.08;57.04;101454.75;4903202;28;127836;-58
2021/04/23 04:09:30;;;;;;;5.95;3.22;;;;;;;11.05;56.26;101452.59;4903350;28;115729;-59
2021/04/23 04:11:56;;;;;;;6.15;3.15;;;;;;;11.05;56.33;101461.50;4903004;28;127443;-59
2021/04/23 04:14:22;;;;;;;6.45;3.20;;;;;;;11.05;56.66;101463.38;4904015;28;97939;-61
2021/04/23 04:16:48;;;;;;;6.25;3.35;;;;;;;11.02;56.82;101461.97;4881524;28;128026;-59
2021/04/23 04:19:14;;;;;;;6.38;3.65;;;;;;;11.02;56.46;101456.59;4883874;28;110073;-61
2021/04/23 04:21:40;;;;;;;6.32;3.47;;;;;;;11.02;56.92;101461.16;4902643;28;128069;-59
2021/04/23 04:24:06;;;;;;;7.43;3.70;;;;;;;11.04;56.67;101464.41;4916934;28;118665;-61
2021/04/23 04:26:33;;;;;;;5.85;3.67;;;;;;;11.04;57.26;101464.41;4903206;28;99316;-59
2021/04/23 04:28:59;;;;;;;7.90;3.72;;;;;;;11.05;57.02;101469.59;4903363;28;98105;-61
2021/04/23 04:31:25;;;;;;;7.03;3.67;;;;;;;11.04;56.85;101473.34;4902170;28;127267;-59
2021/04/23 04:33:51;;;;;;;5.18;3.40;;;;;;;11.06;57.55;101478.50;4902731;28;118621;-59
2021/04/23 04:36:17;;;;;;;7.95;3.88;;;;;;;11.11;57.10;101481.25;4902906;28;98750;-59
2021/04/23 04:38:43;;;;;;;6.05;3.80;;;;;;;11.12;56.86;101484.78;4885237;28;99316;-59
2021/04/23 04:41:10;;;;;;;6.40;3.78;;;;;;;11.11;56.94;101496.63;4903318;28;98918;-59
2021/04/23 04:43:36;;;;;;;5.85;3.80;;;;;;;11.12;56.85;101488.31;4902688;28;105090;-61
2021/04/23 04:46:02;;;;;;;6.57;4.20;;;;;;;11.12;57.22;101487.47;4903064;28;99126;-59
2021/04/23 04:48:28;;;;;;;6.68;3.60;;;;;;;11.11;57.39;101486.66;4903049;28;98898;-59
2021/04/23 04:50:56;;;;;;;7.20;3.70;;;;;;;11.16;57.36;101484.06;4902403;28;103992;-61
2021/04/23 04:53:22;;;;;;;7.45;4.47;;;;;;;11.19;57.57;101490.81;4900910;28;104972;-61
2021/04/23 04:55:50;;;;;;;7.20;3.85;;;;;;;11.21;57.44;101492.22;4902513;28;102172;-61
2021/04/23 04:58:20;;;;;;;7.03;3.97;;;;;;;11.21;57.60;101496.81;4902889;28;118288;-61
2021/04/23 05:00:47;;;;;;;6.20;3.95;;;;;;;11.23;57.62;101500.06;4902343;28;107570;-59
2021/04/23 05:03:13;;;;;;;5.97;4.10;;;;;;;11.26;57.16;101502.28;4901632;28;98090;-59
2021/04/23 05:05:40;;;;;;;7.05;3.80;;;;;;;11.32;57.07;101501.31;4916147;28;128438;-61
2021/04/23 05:08:07;;;;;;;8.13;4.60;;;;;;;11.38;56.67;101505.69;4900170;28;107122;-59
2021/04/23 05:10:33;;;;;;;7.10;4.40;;;;;;;11.44;57.01;101501.22;4902588;28;100382;-59
2021/04/23 05:12:59;;;;;;;7.80;4.03;;;;;;;11.43;56.92;101513.88;4902396;28;97909;-59
2021/04/23 05:15:25;;;;;;;6.55;3.88;;;;;;;11.47;56.54;101515.00;4900952;28;126931;-61
2021/04/23 05:17:51;;;;;;;6.55;4.22;;;;;;;11.52;57.22;101520.50;4902894;28;99080;-59
2021/04/23 05:20:18;;;;;;;8.15;4.25;;;;;;;11.55;56.61;101524.56;4901757;28;101237;-59
2021/04/23 05:22:45;;;;;;;6.50;4.18;;;;;;;11.57;56.94;101518.94;4903595;28;98284;-59
2021/04/23 05:25:15;;;;;;;8.23;4.50;;;;;;;11.57;56.67;101529.72;4916399;28;98226;-59
2021/04/23 05:27:41;;;;;;;7.60;4.47;;;;;;;11.62;57.05;101521.69;4903068;28;98427;-61
2021/04/23 05:30:10;;;;;;;7.13;4.55;;;;;;;11.67;57.22;101524.47;4901942;28;98185;-61
2021/04/23 05:32:37;;;;;;;7.13;4.30;;;;;;;11.69;56.96;101531.25;4903120;28;97774;-59
2021/04/23 05:35:04;;;;;;;7.75;4.80;;;;;;;11.71;57.10;101518.34;4901313;28;120850;-59
2021/04/23 05:37:30;;;;;;;6.88;4.70;;;;;;;11.79;57.04;101526.00;4902049;28;99086;-59
2021/04/23 05:39:56;;;;;;;7.05;4.07;;;;;;;11.84;56.83;101519.06;4900790;28;127357;-59
2021/04/23 05:42:22;;;;;;;5.32;4.32;;;;;;;11.86;56.43;101519.63;4901415;28;118501;-59
2021/04/23 05:44:48;;;;;;;8.93;4.85;;;;;;;11.90;57.04;101518.06;4902654;28;98375;-61
2021/04/23 05:47:14;;;;;;;7.30;4.90;;;;;;;11.99;56.25;101527.38;4901702;28;128722;-59
2021/04/23 05:49:40;;;;;;;7.60;4.75;;;;;;;12.10;56.57;101520.19;4901223;28;128348;-61
2021/04/23 05:52:07;;;;;;;8.23;4.55;;;;;;;12.15;56.15;101533.78;4902367;28;117335;-59
2021/04/23 05:54:34;;;;;;;8.18;4.47;;;;;;;12.32;56.06;101525.59;4901363;28;98983;-59
2021/04/23 05:57:00;;;;;;;7.00;4.40;;;;;;;12.50;55.69;101530.69;4902304;28;98078;-61
2021/04/23 05:59:26;;;;;;;7.25;4.50;;;;;;;12.57;55.57;101516.94;4901062;28;116645;-59
2021/04/23 06:01:52;;;;;;;7.68;4.60;;;;;;;12.64;55.41;101518.34;4902340;28;97953;-59
2021/04/23 06:04:18;;;;;;;8.75;4.70;;;;;;;12.78;55.27;101526.88;4900988;28;127943;-61
2021/04/23 06:06:44;;;;;;;8.35;4.43;;;;;;;13.03;54.89;101520.88;4903560;28;129038;-61
2021/04/23 06:09:10;;;;;;;7.63;4.70;;;;;;;13.18;54.45;101521.00;4904846;28;126449;-59
2021/04/23 06:11:37;;;;;;;6.97;4.25;;;;;;;13.29;54.25;101519.22;4904861;28;117269;-59
2021/04/23 06:14:04;;;;;;;9.52;4.72;;;;;;;13.51;53.81;101516.38;4905524;28;98784;-61
2021/04/23 06:16:30;;;;;;;6.18;4.50;;;;;;;13.69;53.68;101520.56;4905169;28;117560;-59
2021/04/23 06:18:56;;;;;;;6.70;4.20;;;;;;;13.74;53.52;101528.72;4904988;28;112841;-59
2021/04/23 06:21:23;;;;;;;8.32;4.63;;;;;;;13.89;53.15;101517.94;4904345;28;98136;-61
2021/04/23 06:23:49;;;;;;;7.30;4.63;;;;;;;14.04;52.85;101529.94;4912043;28;112913;-61
2021/04/23 06:26:16;;;;;;;7.65;4.45;;;;;;;14.05;53.07;101518.00;4904258;28;117402;-59
2021/04/23 06:28:44;;;;;;;7.53;4.47;;;;;;;14.14;52.81;101524.53;4919249;28;98426;-59
2021/04/23 06:31:11;;;;;;;7.63;5.30;;;;;;;14.14;53.30;101530.78;4903960;28;98016;-59
2021/04/23 06:33:40;;;;;;;6.22;4.70;;;;;;;14.09;53.66;101532.66;4903653;28;98461;-61
2021/04/23 06:36:06;;;;;;;6.78;4.53;;;;;;;13.99;54.08;101538.88;4904850;28;98258;-61
2021/04/23 06:38:33;;;;;;;6.80;4.68;;;;;;;13.94;54.39;101539.66;4903039;28;110357;-59
2021/04/23 06:40:59;;;;;;;7.85;4.70;;;;;;;13.90;54.47;101537.72;4903736;28;97838;-61
2021/04/23 06:43:25;;;;;;;8.02;4.90;;;;;;;13.80;54.47;101546.63;4903032;28;98730;-59
2021/04/23 06:45:52;;;;;;;8.15;4.65;;;;;;;13.77;54.35;101540.91;4903800;28;109629;-59
2021/04/23 06:48:18;;;;;;;7.93;5.07;;;;;;;13.83;54.63;101546.09;4886900;28;98300;-59
2021/04/23 06:50:44;;;;;;;7.88;5.03;;;;;;;13.84;54.56;101541.50;4903075;28;97933;-61
2021/04/23 06:53:10;;;;;;;6.35;4.72;;;;;;;13.82;54.28;101551.78;4904771;28;114320;-59
2021/04/23 06:55:37;;;;;;;6.88;4.60;;;;;;;13.91;54.37;101552.91;4904472;28;98802;-61
2021/04/23 06:58:03;;;;;;;7.53;5.03;;;;;;;13.92;54.69;101549.13;4904060;28;109806;-61
2021/04/23 07:00:32;;;;;;;7.85;4.90;;;;;;;14.04;54.19;101554.34;4904032;28;97915;-61
2021/04/23 07:02:59;;;;;;;6.88;4.60;;;;;;;14.11;53.84;101549.47;4903505;28;98244;-61
2021/04/23 07:05:25;;;;;;;8.40;4.90;;;;;;;14.01;54.62;101552.97;4904004;28;99095;-61
2021/04/23 07:07:51;;;;;;;7.35;5.13;;;;;;;13.94;54.69;101547.78;4902870;28;127409;-61
2021/04/23 07:10:20;;;;;;;6.93;4.65;;;;;;;13.90;54.23;101549.38;4902807;28;97973;-61
2021/04/23 07:12:46;;;;;;;6.85;4.80;;;;;;;13.98;54.50;101546.16;4903703;28;98838;-59
2021/04/23 07:15:15;;;;;;;8.00;4.70;;;;;;;14.12;54.31;101548.41;4903047;28;98689;-59
2021/04/23 07:17:42;;;;;;;6.18;4.72;;;;;;;14.16;54.11;101550.31;4903284;28;98049;-61
2021/04/23 07:20:09;;;;;;;8.05;4.90;;;;;;;14.07;54.31;101541.06;4903379;28;97931;-59
2021/04/23 07:22:35;;;;;;;8.65;5.07;;;;;;;14.07;54.35;101545.66;4902579;28;112225;-59
2021/04/23 07:25:01;;;;;;;7.70;5.05;;;;;;;14.15;54.41;101551.41;4901651;28;128555;-59
2021/04/23 07:27:27;;;;;;;7.07;4.63;;;;;;;14.17;54.08;101559.28;4902838;28;114129;-62
2021/04/23 07:29:53;;;;;;;7.80;4.97;;;;;;;14.25;54.04;101558.75;4902963;28;117586;-61
2021/04/23 07:32:19;;;;;;;7.53;4.90;;;;;;;14.23;54.64;101558.22;4901808;28;127225;-61
2021/04/23 07:34:45;;;;;;;7.85;4.85;;;;;;;14.23;54.04;101560.94;4901687;28;128818;-59
2021/04/23 07:37:12;;;;;;;7.38;5.28;;;;;;;14.11;54.84;101566.59;4901801;28;126135;-59
2021/04/23 07:39:38;;;;;;;6.95;4.53;;;;;;;13.95;55.27;101562.97;4903083;28;97677;-61
2021/04/23 07:42:04;;;;;;;7.80;5.00;;;;;;;13.86;55.58;101572.66;4902783;28;120992;-61
2021/04/23 07:44:30;;;;;;;6.53;4.50;;;;;;;13.91;54.89;101570.00;4903058;28;98519;-59
2021/04/23 07:46:56;;;;;;;8.35;4.88;;;;;;;14.09;54.82;101566.00;4901614;28;127757;-61
2021/04/23 07:49:22;;;;;;;7.93;5.10;;;;;;;14.13;54.86;101566.31;4901372;28;97820;-59
2021/04/23 07:51:48;;;;;;;7.38;4.53;;;;;;;14.02;55.16;101573.56;4916396;28;125328;-59
2021/04/23 07:54:15;;;;;;;6.78;4.70;;;;;;;14.03;55.38;101577.94;4915902;28;128767;-61
2021/04/23 07:56:41;;;;;;;7.25;4.45;;;;;;;14.11;54.91;101573.88;4903138;28;97812;-59
2021/04/23 07:59:07;;;;;;;6.95;4.35;;;;;;;14.17;54.87;101570.94;4880290;28;634209;-61
2021/04/23 08:01:33;;;;;;;7.90;4.57;;;;;;;14.13;54.51;101572.53;4901472;28;114452;-59
2021/04/23 08:04:00;;;;;;;4.95;3.78;;;;;;;14.20;54.27;101573.13;4902777;28;127989;-61
2021/04/23 08:06:26;;;;;;;7.30;4.13;;;;;;;14.19;54.15;101576.91;4902975;28;127618;-61
2021/04/23 08:08:52;;;;;;;6.25;4.00;;;;;;;14.13;54.20;101577.16;4903420;28;117831;-59
2021/04/23 08:11:18;;;;;;;7.35;3.65;;;;;;;13.95;54.29;101581.94;4903895;28;98135;-59
2021/04/23 08:13:44;;;;;;;6.43;3.88;;;;;;;13.93;54.35;101586.00;4903527;28;129552;-61
2021/04/23 08:16:11;;;;;;;6.38;3.92;;;;;;;14.06;54.30;101580.09;4902628;28;97767;-61
2021/04/23 08:18:39;;;;;;;7.63;3.78;;;;;;;14.14;54.36;101590.44;4904081;28;97841;-60
2021/04/23 08:21:06;;;;;;;7.25;3.80;;;;;;;14.18;54.07;101588.00;4903003;28;98843;-59
2021/04/23 08:23:33;;;;;;;7.18;3.83;;;;;;;14.23;54.09;101583.44;4901248;28;99795;-59
2021/04/23 08:26:02;;;;;;;7.22;3.35;;;;;;;14.21;54.14;101595.63;4902622;28;98358;-59
2021/04/23 08:28:29;;;;;;;5.00;3.28;;;;;;;14.18;54.25;101588.00;4902635;28;97851;-61
2021/04/23 08:30:55;;;;;;;5.63;2.90;;;;;;;14.12;54.43;101592.59;4916823;28;122258;-59
2021/04/23 08:33:21;;;;;;;5.53;3.53;;;;;;;14.08;54.46;101598.81;4903479;28;98483;-61
2021/04/23 08:35:48;;;;;;;4.97;3.58;;;;;;;14.11;54.40;101592.84;4904038;28;98229;-61
2021/04/23 08:38:14;;;;;;;5.13;3.40;;;;;;;14.07;54.63;101595.31;4902162;28;98030;-59
2021/04/23 08:40:40;;;;;;;7.28;3.60;;;;;;;14.07;54.64;101595.31;4902086;28;127392;-59
2021/04/23 08:43:06;;;;;;;5.63;3.28;;;;;;;14.01;54.88;101588.22;4902555;28;128186;-61
2021/04/23 08:45:32;;;;;;;5.93;3.40;;;;;;;13.95;54.77;101609.06;4916981;28;127559;-59
2021/04/23 08:47:58;;;;;;;5.65;3.20;;;;;;;13.90;54.70;101606.28;4903029;28;117259;-61
2021/04/23 08:50:25;;;;;;;6.20;3.28;;;;;;;13.89;54.89;101609.28;4884292;28;122757;-61
2021/04/23 08:52:52;;;;;;;4.88;2.92;;;;;;;13.81;55.28;101618.72;4902803;28;98881;-62
2021/04/23 08:55:24;;;;;;;5.35;3.03;;;;;;;13.83;54.59;101618.44;4903037;28;97743;-59
2021/04/23 08:57:50;;;;;;;4.90;3.05;;;;;;;13.82;55.09;101617.63;4903310;28;97836;-59
2021/04/23 09:00:16;;;;;;;6.28;3.28;;;;;;;13.70;55.05;101604.28;4901037;28;103661;-59
2021/04/23 09:02:44;;;;;;;4.32;2.97;;;;;;;13.74;55.18;101610.00;4902770;28;105636;-59
2021/04/23 09:05:11;;;;;;;4.68;2.92;;;;;;;13.75;55.11;101608.91;4902209;28;97872;-62
2021/04/23 09:07:37;;;;;;;5.40;3.30;;;;;;;13.78;54.72;101602.97;4901587;28;104998;-61
2021/04/23 09:10:11;;;;;;;4.30;2.95;;;;;;;13.77;54.01;101601.34;4883726;28;126588;-60
2021/04/23 09:12:37;;;;;;;5.90;3.08;;;;;;;13.86;54.21;101605.19;4902757;28;98447;-61
2021/04/23 09:15:05;;;;;;;5.07;3.10;;;;;;;13.90;54.92;101598.16;4901714;28;128359;-59
2021/04/23 09:17:31;;;;;;;4.90;3.00;;;;;;;13.92;54.75;101598.75;4903046;28;97997;-59
2021/04/23 09:19:58;;;;;;;4.70;2.95;;;;;;;13.94;54.94;101610.13;4902463;28;98286;-61
2021/04/23 09:22:32;;;;;;;5.22;2.78;;;;;;;13.92;54.13;101619.59;4901041;28;98500;-61
2021/04/23 09:25:04;;;;;;;5.95;3.15;;;;;;;13.86;55.03;101613.31;4902098;28;98376;-59
2021/04/23 09:27:35;;;;;;;5.88;3.40;;;;;;;13.84;54.61;101617.38;4902907;28;97796;-59
2021/04/23 09:30:09;;;;;;;6.80;3.30;;;;;;;14.16;53.78;101626.25;4902241;28;98290;-59
2021/04/23 09:32:40;;;;;;;5.65;3.03;;;;;;;14.48;52.62;101622.59;4902141;28;114059;-61
2021/04/23 09:35:19;;;;;;;5.35;3.13;;;;;;;15.02;50.59;101610.56;4901678;28;112872;-59
2021/04/23 09:37:55;;;;;;;5.28;2.90;;;;;;;15.41;49.13;101613.59;4903380;28;98100;-61
2021/04/23 09:40:28;;;;;;;5.13;2.85;;;;;;;16.09;47.79;101616.75;4901115;28;98499;-61
2021/04/23 09:42:59;;;;;;;3.92;2.60;;;;;;;16.81;46.65;101602.84;4902007;28;118049;-62
2021/04/23 09:45:28;;;;;;;4.78;2.50;;;;;;;16.79;46.85;101605.06;4902228;28;99303;-61
2021/04/23 09:47:54;;;;;;;5.22;2.70;;;;;;;16.71;46.95;101611.06;4903437;28;97998;-62
2021/04/23 09:50:21;;;;;;;6.07;2.63;;;;;;;16.57;46.92;101611.66;4901534;28;98471;-59
2021/04/23 09:52:55;;;;;;;6.25;2.78;;;;;;;16.78;47.48;101626.03;4901050;28;98048;-62
2021/04/23 09:55:32;;;;;;;6.78;2.95;;;;;;;18.10;46.91;101615.94;4900116;28;98393;-62
2021/04/23 09:58:06;;;;;;;5.07;2.60;;;;;;;19.89;44.04;101613.31;4902858;28;98049;-61
2021/04/23 10:00:39;;;;;;;5.25;2.30;;;;;;;19.26;45.74;101617.41;4902024;28;98043;-63
2021/04/23 10:03:06;;;;;;;4.63;2.60;;;;;;;22.53;39.85;101610.00;4901918;28;99151;-60
2021/04/23 10:05:42;;;;;;;5.03;2.40;;;;;;;22.15;40.79;101607.78;4902597;28;98086;-60
2021/04/23 10:08:25;;;;;;;4.55;2.47;;;;;;;25.00;36.46;101604.69;4902918;28;97957;-62
2021/04/23 10:10:54;;;;;;;3.72;2.30;;;;;;;22.82;40.89;101623.09;4901642;28;99071;-60
2021/04/23 10:13:28;;;;;;;6.53;2.60;;;;;;;22.08;43.29;101623.06;4901993;28;99018;-62
2021/04/23 10:15:54;;;;;;;4.30;2.28;;;;;;;21.40;44.98;101630.63;4901080;28;97950;-62
2021/04/23 10:18:20;;;;;;;5.03;2.40;;;;;;;24.27;38.70;101615.22;4902802;28;97769;-60
2021/04/23 10:20:48;;;;;;;4.50;2.30;;;;;;;28.33;31.57;101616.31;4901192;28;126616;-61
2021/04/23 10:23:17;;;;;;;4.70;2.10;;;;;;;26.85;34.18;101629.41;4901877;28;117294;-63
2021/04/23 10:25:44;;;;;;;3.30;1.80;;;;;;;25.43;37.64;101639.34;4901753;28;98234;-63
2021/04/23 10:28:14;;;;;;;3.90;1.80;;;;;;;24.87;39.29;101625.84;4902288;28;98159;-60
2021/04/23 10:30:44;;;;;;;2.97;1.83;;;;;;;24.83;39.48;101629.63;4900865;28;118897;-62
2021/04/23 10:33:19;;;;;;;3.03;1.80;;;;;;;26.16;36.40;101630.41;4883335;28;113915;-60
2021/04/23 10:35:47;;;;;;;4.63;2.00;;;;;;;24.42;40.24;101615.47;4902235;28;98529;-62
2021/04/23 10:38:18;;;;;;;3.80;2.30;;;;;;;25.06;38.93;101608.03;4902969;28;97730;-62
2021/04/23 10:40:51;;;;;;;3.05;1.80;;;;;;;25.63;37.16;101610.09;4883806;28;98692;-62
2021/04/23 10:43:18;;;;;;;4.72;2.00;;;;;;;28.42;32.52;101612.59;4902268;28;108915;-60
2021/04/23 10:45:48;;;;;;;3.85;1.70;;;;;;;27.89;33.82;101610.91;4902024;28;97971;-60
2021/04/23 10:48:16;;;;;;;4.25;1.63;;;;;;;25.99;37.72;101611.31;4899709;28;98192;-63
2021/04/23 10:50:43;;;;;;;2.92;1.60;;;;;;;24.62;39.68;101608.38;4897213;28;98084;-60
2021/04/23 10:53:11;;;;;;;4.15;2.00;;;;;;;23.73;41.89;101619.31;4901696;28;98568;-60
2021/04/23 10:55:53;;;;;;;4.75;2.20;;;;;;;23.89;41.11;101610.53;4901316;28;106192;-62
2021/04/23 10:58:38;;;;;;;3.25;1.85;;;;;;;25.44;37.95;101602.34;4901848;28;97960;-62
2021/04/23 11:01:14;;;;;;;3.80;1.98;;;;;;;28.77;32.16;101587.59;4901697;28;99538;-61
2021/04/23 11:04:02;;;;;;;3.15;1.60;;;;;;;26.23;36.48;101607.72;4899567;28;98275;-62
2021/04/23 11:06:30;;;;;;;3.67;1.58;;;;;;;27.74;33.81;101608.94;4901947;28;98100;-60
2021/04/23 11:08:59;;;;;;;4.13;1.73;;;;;;;25.88;36.87;101614.50;4901619;28;98265;-63
2021/04/23 11:11:32;;;;;;;3.53;1.70;;;;;;;24.88;39.12;101618.41;4901403;28;98275;-62
2021/04/23 11:14:26;;;;;;;2.90;1.63;;;;;;;25.53;37.75;101610.50;4902233;28;98530;-62
2021/04/23 11:16:54;;;;;;;4.60;1.75;;;;;;;25.42;37.99;101613.69;4901162;28;98076;-60
2021/04/23 11:19:20;;;;;;;2.47;1.42;;;;;;;24.92;39.43;101619.34;4899452;28;98145;-60
2021/04/23 11:21:50;;;;;;;4.20;1.80;;;;;;;24.08;40.71;101612.88;4900908;28;98905;-60
2021/04/23 11:24:20;;;;;;;2.53;1.80;;;;;;;26.20;36.42;101603.69;4900417;28;107880;-62